Time;durP1;ratioP1;P1;durP2;ratioP2;P2;SDS_P1;SDS_P2;PMS_P1;PMS_P2;Temp;Humidity;BMP_temperature;BMP_pressure;BME280_temperature;BME280_humidity;BME280_pressure;Samples;Min_cycle;Max_cycle;Signal;HPM_P1;HPM_P2
2021/09/22 00:00:39;;;;;;;39.92;6.88;;;11.80;99.20;;;;;;5025404;28;20052;-66
2021/09/22 00:03:05;;;;;;;32.10;7.25;;;11.70;99.10;;;;;;5025176;28;20033;-67
2021/09/22 00:05:31;;;;;;;36.60;6.93;;;11.60;99.20;;;;;;5031093;28;20076;-67
2021/09/22 00:07:57;;;;;;;34.97;6.18;;;11.60;99.20;;;;;;5034194;28;20045;-67
2021/09/22 00:10:22;;;;;;;40.90;7.30;;;11.60;99.20;;;;;;5025199;28;20114;-67
2021/09/22 00:12:49;;;;;;;44.33;7.53;;;11.60;99.20;;;;;;5032139;28;20040;-67
2021/09/22 00:15:17;;;;;;;32.28;7.03;;;11.70;99.20;;;;;;5024997;28;20422;-67
2021/09/22 00:17:43;;;;;;;39.88;7.97;;;11.60;99.20;;;;;;5028465;28;20361;-67
2021/09/22 00:20:10;;;;;;;38.72;7.82;;;11.60;99.10;;;;;;5026122;28;20032;-66
2021/09/22 00:22:36;;;;;;;42.38;8.25;;;11.50;99.10;;;;;;5024843;28;20017;-68
2021/09/22 00:25:02;;;;;;;38.58;7.90;;;11.40;99.20;;;;;;5020386;28;20025;-67
2021/09/22 00:27:28;;;;;;;42.22;8.68;;;11.40;99.20;;;;;;5024829;28;20086;-68
2021/09/22 00:29:53;;;;;;;36.55;7.57;;;11.40;99.20;;;;;;5026628;28;20104;-67
2021/09/22 00:32:19;;;;;;;47.97;8.27;;;11.30;99.20;;;;;;5023608;28;20043;-67
2021/09/22 00:34:45;;;;;;;42.92;7.45;;;11.20;99.20;;;;;;5024989;28;20037;-67
2021/09/22 00:37:10;;;;;;;35.67;8.35;;;11.20;99.30;;;;;;5024486;28;20350;-67
2021/09/22 00:39:36;;;;;;;43.65;9.18;;;11.20;99.30;;;;;;5027050;28;20034;-67
2021/09/22 00:42:03;;;;;;;37.78;9.15;;;11.20;99.40;;;;;;5025171;28;20025;-67
2021/09/22 00:44:29;;;;;;;43.38;9.35;;;11.30;99.40;;;;;;5023819;28;20112;-67
2021/09/22 00:46:55;;;;;;;35.90;8.75;;;11.30;99.40;;;;;;5022878;28;20172;-67
2021/09/22 00:49:20;;;;;;;46.25;9.50;;;11.30;99.40;;;;;;5021994;28;20033;-68
2021/09/22 00:51:46;;;;;;;38.00;9.68;;;11.20;99.40;;;;;;5024604;28;20030;-67
2021/09/22 00:54:13;;;;;;;35.03;8.38;;;11.20;99.40;;;;;;5023820;28;20060;-67
2021/09/22 00:56:38;;;;;;;47.55;10.20;;;11.20;99.40;;;;;;5024000;28;20033;-67
2021/09/22 00:59:05;;;;;;;44.80;9.40;;;11.10;99.40;;;;;;5024089;28;20403;-67
2021/09/22 01:01:31;;;;;;;42.97;9.80;;;11.10;99.50;;;;;;5029515;28;20025;-67
2021/09/22 01:04:00;;;;;;;30.13;9.05;;;11.10;99.50;;;;;;5023787;28;20112;-68
2021/09/22 01:06:26;;;;;;;53.05;9.45;;;11.10;99.50;;;;;;5024467;28;20037;-67
2021/09/22 01:08:52;;;;;;;49.92;9.30;;;11.10;99.60;;;;;;5022659;28;20026;-67
2021/09/22 01:11:19;;;;;;;41.15;8.75;;;11.00;99.50;;;;;;5024194;28;20528;-67
2021/09/22 01:13:45;;;;;;;34.53;9.00;;;10.90;99.40;;;;;;5023539;28;20085;-67
2021/09/22 01:16:11;;;;;;;49.13;9.40;;;10.90;99.50;;;;;;5022195;28;20024;-67
2021/09/22 01:18:37;;;;;;;43.58;9.13;;;10.80;99.50;;;;;;5023919;28;20032;-67
2021/09/22 01:21:02;;;;;;;35.53;9.30;;;10.80;99.50;;;;;;5022737;28;20032;-66
2021/09/22 01:23:28;;;;;;;37.20;9.23;;;10.70;99.60;;;;;;5019678;28;20420;-67
2021/09/22 01:25:55;;;;;;;40.00;9.38;;;10.80;99.70;;;;;;5026979;28;20041;-68
2021/09/22 01:28:24;;;;;;;42.70;10.07;;;10.70;99.60;;;;;;5021762;28;20630;-67
2021/09/22 01:30:50;;;;;;;36.85;10.20;;;10.80;99.70;;;;;;5023848;28;20033;-67
2021/09/22 01:33:18;;;;;;;42.72;9.93;;;10.80;99.70;;;;;;5023702;28;20032;-67
2021/09/22 01:35:46;;;;;;;38.40;10.57;;;10.70;99.60;;;;;;5029133;28;20512;-67
2021/09/22 01:38:15;;;;;;;43.83;9.43;;;10.70;99.60;;;;;;5022705;28;20036;-68
2021/09/22 01:40:58;;;;;;;44.35;9.15;;;10.60;99.60;;;;;;5023688;28;20053;-67
2021/09/22 01:43:26;;;;;;;47.40;9.93;;;10.50;99.60;;;;;;5023789;28;20044;-67
2021/09/22 01:45:51;;;;;;;45.33;10.65;;;10.40;99.60;;;;;;5025073;28;20026;-68
2021/09/22 01:48:17;;;;;;;45.70;9.55;;;10.40;99.70;;;;;;5022290;28;20534;-67
2021/09/22 01:50:43;;;;;;;35.58;8.90;;;10.40;99.70;;;;;;5025783;28;20033;-67
2021/09/22 01:53:08;;;;;;;41.90;10.13;;;10.40;99.80;;;;;;5018596;28;20029;-65
2021/09/22 01:55:34;;;;;;;41.45;10.13;;;10.40;99.80;;;;;;5021064;28;20029;-67
2021/09/22 01:58:01;;;;;;;36.30;9.88;;;10.30;99.70;;;;;;5021798;28;20115;-67
2021/09/22 02:00:27;;;;;;;54.88;10.57;;;10.30;99.80;;;;;;5022972;28;20027;-67
2021/09/22 02:02:52;;;;;;;53.50;10.82;;;10.30;99.80;;;;;;5022756;28;20022;-67
2021/09/22 02:05:18;;;;;;;58.30;10.75;;;10.30;99.80;;;;;;5026038;28;20480;-67
2021/09/22 02:07:43;;;;;;;68.35;11.00;;;10.30;99.70;;;;;;5023846;28;20057;-67
2021/09/22 02:10:09;;;;;;;66.68;10.23;;;10.20;99.70;;;;;;5025282;28;20037;-67
2021/09/22 02:12:35;;;;;;;66.15;10.77;;;10.20;99.80;;;;;;5028146;28;21954;-67
2021/09/22 02:15:01;;;;;;;43.95;9.80;;;10.20;99.80;;;;;;5039176;28;20105;-67
2021/09/22 02:17:27;;;;;;;32.45;9.80;;;10.20;99.80;;;;;;5027473;28;20395;-68
2021/09/22 02:19:52;;;;;;;43.20;10.35;;;10.20;99.80;;;;;;5028053;28;20113;-66
2021/09/22 02:22:18;;;;;;;44.05;10.27;;;10.30;99.90;;;;;;5027282;28;20033;-67
2021/09/22 02:24:44;;;;;;;37.13;10.00;;;10.20;99.80;;;;;;5026720;28;20404;-67
2021/09/22 02:27:15;;;;;;;42.97;11.50;;;10.30;99.90;;;;;;5027272;28;20033;-67
2021/09/22 02:29:41;;;;;;;47.38;11.10;;;10.20;99.90;;;;;;5027098;28;20096;-67
2021/09/22 02:32:08;;;;;;;37.17;11.15;;;10.30;99.90;;;;;;5027389;28;20120;-67
2021/09/22 02:34:34;;;;;;;53.60;11.90;;;10.20;99.80;;;;;;5026586;28;20569;-67
2021/09/22 02:37:00;;;;;;;34.65;11.15;;;10.20;99.80;;;;;;5025495;28;20032;-67
2021/09/22 02:39:26;;;;;;;37.67;11.63;;;10.20;99.90;;;;;;5032534;28;20120;-66
2021/09/22 02:41:52;;;;;;;53.15;11.98;;;10.10;99.90;;;;;;5025139;28;20029;-67
2021/09/22 02:44:18;;;;;;;42.83;12.40;;;10.10;99.90;;;;;;5023917;28;20029;-67
2021/09/22 02:46:43;;;;;;;39.20;11.50;;;10.10;99.90;;;;;;5026949;28;20064;-67
2021/09/22 02:49:09;;;;;;;51.58;11.75;;;10.10;99.90;;;;;;5034456;28;20053;-67
2021/09/22 02:51:35;;;;;;;32.65;11.18;;;10.10;99.90;;;;;;5025388;28;20025;-66
2021/09/22 02:54:00;;;;;;;41.78;10.80;;;10.10;99.90;;;;;;5020434;28;20591;-67
2021/09/22 02:56:26;;;;;;;63.25;11.57;;;10.10;99.90;;;;;;5025988;28;20424;-67
2021/09/22 02:58:51;;;;;;;94.50;12.65;;;10.10;99.90;;;;;;5022054;28;20035;-66
2021/09/22 03:01:17;;;;;;;122.10;14.07;;;10.10;99.90;;;;;;5030874;28;20051;-66
2021/09/22 03:03:43;;;;;;;69.05;13.38;;;10.20;99.90;;;;;;5030834;28;20544;-68
2021/09/22 03:06:09;;;;;;;70.55;13.10;;;10.20;99.90;;;;;;5036384;28;20033;-68
2021/09/22 03:08:38;;;;;;;64.47;13.68;;;10.30;99.90;;;;;;5026236;28;20104;-67
2021/09/22 03:11:06;;;;;;;53.38;14.05;;;10.20;99.90;;;;;;5025787;28;20488;-67
2021/09/22 03:13:33;;;;;;;90.75;16.05;;;10.20;99.90;;;;;;5031157;28;20578;-67
2021/09/22 03:15:59;;;;;;;104.07;18.00;;;10.20;99.90;;;;;;5027392;28;20033;-67
2021/09/22 03:18:25;;;;;;;111.97;21.63;;;10.20;99.90;;;;;;5025637;28;20037;-66
2021/09/22 03:20:50;;;;;;;138.25;21.52;;;10.20;99.90;;;;;;5022604;28;20548;-67
2021/09/22 03:23:16;;;;;;;126.55;20.90;;;10.20;99.90;;;;;;5022868;28;20030;-67
2021/09/22 03:25:42;;;;;;;90.20;17.85;;;10.20;99.90;;;;;;5033747;28;20067;-66
2021/09/22 03:28:07;;;;;;;75.88;17.05;;;10.20;99.90;;;;;;5020458;28;20025;-67
2021/09/22 03:30:33;;;;;;;51.10;14.82;;;10.20;99.90;;;;;;5026321;28;20021;-65
2021/09/22 03:32:58;;;;;;;55.30;15.93;;;10.30;99.90;;;;;;5027000;28;20477;-67
2021/09/22 03:35:24;;;;;;;42.13;14.63;;;10.30;99.90;;;;;;5033070;28;20049;-67
2021/09/22 03:37:50;;;;;;;47.97;13.45;;;10.30;99.90;;;;;;5030876;28;20030;-67
2021/09/22 03:40:15;;;;;;;58.38;13.88;;;10.20;99.90;;;;;;5028783;28;20032;-67
2021/09/22 03:42:41;;;;;;;41.85;13.25;;;10.10;99.90;;;;;;5024455;28;20108;-67
2021/09/22 03:45:07;;;;;;;54.38;13.13;;;10.10;99.90;;;;;;5034633;28;20029;-66
2021/09/22 03:47:33;;;;;;;49.28;12.77;;;10.10;99.90;;;;;;5033233;28;20020;-68
2021/09/22 03:49:59;;;;;;;51.28;13.30;;;10.10;99.90;;;;;;5025422;28;20535;-66
2021/09/22 03:52:24;;;;;;;36.03;13.10;;;10.10;99.90;;;;;;5026283;28;20052;-66
2021/09/22 03:54:50;;;;;;;69.93;14.23;;;10.20;99.90;;;;;;5023976;28;20247;-67
2021/09/22 03:57:16;;;;;;;53.83;13.90;;;10.30;99.90;;;;;;5023837;28;20104;-67
2021/09/22 03:59:42;;;;;;;74.47;14.20;;;10.30;99.90;;;;;;5023064;28;20504;-66
2021/09/22 04:02:08;;;;;;;74.50;14.02;;;10.40;99.90;;;;;;5024022;28;20084;-66
2021/09/22 04:04:34;;;;;;;85.15;15.00;;;10.40;99.90;;;;;;5026690;28;20324;-67
2021/09/22 04:06:59;;;;;;;104.07;13.98;;;10.40;99.90;;;;;;5026250;28;20083;-67
2021/09/22 04:09:26;;;;;;;95.82;15.05;;;10.40;99.90;;;;;;5026451;28;20037;-68
2021/09/22 04:11:51;;;;;;;88.47;14.20;;;10.40;99.90;;;;;;5025705;28;20492;-67
2021/09/22 04:14:17;;;;;;;92.78;14.60;;;10.40;99.90;;;;;;5025451;28;20087;-67
2021/09/22 04:16:43;;;;;;;83.63;15.07;;;10.40;99.90;;;;;;5020668;28;20216;-67
2021/09/22 04:19:08;;;;;;;103.78;16.08;;;10.40;99.90;;;;;;5022491;28;20376;-67
2021/09/22 04:21:34;;;;;;;74.90;14.35;;;10.40;99.90;;;;;;5020639;28;20175;-63
2021/09/22 04:24:00;;;;;;;90.05;14.02;;;10.40;99.90;;;;;;5025161;28;20048;-63
2021/09/22 04:26:26;;;;;;;79.45;14.05;;;10.40;99.90;;;;;;5024124;28;20409;-62
2021/09/22 04:28:51;;;;;;;52.38;12.00;;;10.30;99.90;;;;;;5023509;28;20048;-63
2021/09/22 04:31:17;;;;;;;87.78;14.00;;;10.30;99.90;;;;;;5024580;28;20489;-62
2021/09/22 04:33:42;;;;;;;66.68;14.45;;;10.30;99.90;;;;;;5024438;28;20029;-63
2021/09/22 04:36:08;;;;;;;72.30;14.80;;;10.30;99.90;;;;;;5028431;28;20021;-61
2021/09/22 04:38:35;;;;;;;73.55;14.35;;;10.30;99.90;;;;;;5035181;28;20022;-62
2021/09/22 04:41:00;;;;;;;54.22;12.75;;;10.30;99.90;;;;;;5024058;28;20021;-61
2021/09/22 04:43:26;;;;;;;40.97;11.90;;;10.30;99.90;;;;;;5019359;28;20087;-61
2021/09/22 04:45:52;;;;;;;46.70;13.00;;;10.30;99.90;;;;;;5025494;28;20026;-62
2021/09/22 04:48:17;;;;;;;53.70;12.45;;;10.20;99.90;;;;;;5024612;28;20056;-62
2021/09/22 04:50:43;;;;;;;50.70;13.73;;;10.20;99.90;;;;;;5025236;28;20026;-61
2021/09/22 04:53:09;;;;;;;61.20;12.48;;;10.20;99.90;;;;;;5024328;28;20029;-62
2021/09/22 04:55:35;;;;;;;50.00;12.43;;;10.20;99.90;;;;;;5025489;28;20029;-62
2021/09/22 04:58:00;;;;;;;60.67;12.80;;;10.10;99.90;;;;;;5027920;28;20033;-62
2021/09/22 05:00:26;;;;;;;44.20;12.25;;;10.20;99.90;;;;;;5023165;28;21186;-61
2021/09/22 05:02:51;;;;;;;55.58;12.30;;;10.10;99.90;;;;;;5029107;28;20159;-62
2021/09/22 05:05:17;;;;;;;53.22;13.65;;;10.10;99.90;;;;;;5026151;28;20092;-63
2021/09/22 05:07:43;;;;;;;54.35;12.95;;;10.10;99.90;;;;;;5022828;28;20425;-63
2021/09/22 05:10:09;;;;;;;46.58;11.73;;;10.10;99.90;;;;;;5023134;28;20044;-63
2021/09/22 05:12:34;;;;;;;59.25;12.63;;;10.10;99.90;;;;;;5024405;28;20032;-63
2021/09/22 05:15:00;;;;;;;47.13;12.02;;;10.10;99.90;;;;;;5024962;28;20026;-62
2021/09/22 05:17:26;;;;;;;59.65;12.20;;;10.10;99.90;;;;;;5022649;28;20021;-64
2021/09/22 05:19:52;;;;;;;55.75;12.60;;;10.10;99.90;;;;;;5028519;28;20033;-64
2021/09/22 05:22:18;;;;;;;65.75;12.55;;;10.20;99.90;;;;;;5020039;28;20018;-63
2021/09/22 05:24:44;;;;;;;54.03;12.85;;;10.10;99.90;;;;;;5024683;28;20082;-65
2021/09/22 05:27:10;;;;;;;58.90;12.60;;;10.20;99.90;;;;;;5027511;28;20400;-64
2021/09/22 05:29:37;;;;;;;50.67;12.55;;;10.20;99.90;;;;;;5023471;28;20036;-65
2021/09/22 05:32:03;;;;;;;74.22;13.77;;;10.20;99.90;;;;;;5025918;28;20039;-64
2021/09/22 05:34:29;;;;;;;46.05;12.93;;;10.30;99.90;;;;;;5031210;28;20390;-64
2021/09/22 05:36:54;;;;;;;63.40;12.98;;;10.30;99.90;;;;;;5024611;28;20060;-65
2021/09/22 05:39:20;;;;;;;58.38;12.07;;;10.30;99.90;;;;;;5024612;28;20415;-65
2021/09/22 05:41:46;;;;;;;85.00;14.45;;;10.30;99.90;;;;;;5023231;28;20060;-64
2021/09/22 05:44:11;;;;;;;67.90;13.63;;;10.30;99.90;;;;;;5025402;28;20314;-64
2021/09/22 05:46:37;;;;;;;81.30;14.00;;;10.40;99.90;;;;;;5023693;28;20116;-65
2021/09/22 05:49:04;;;;;;;61.75;12.82;;;10.40;99.90;;;;;;5024272;28;20038;-64
2021/09/22 05:51:30;;;;;;;62.25;13.75;;;10.40;99.90;;;;;;5024202;28;20038;-64
2021/09/22 05:53:55;;;;;;;62.65;12.93;;;10.40;99.90;;;;;;5023097;28;20111;-65
2021/09/22 05:56:21;;;;;;;74.22;13.68;;;10.40;99.90;;;;;;5024034;28;20014;-64
2021/09/22 05:58:47;;;;;;;62.65;13.10;;;10.40;99.90;;;;;;5021623;28;20492;-64
2021/09/22 06:01:12;;;;;;;61.50;13.02;;;10.30;99.90;;;;;;5023087;28;20018;-63
2021/09/22 06:03:38;;;;;;;76.32;14.45;;;10.40;99.90;;;;;;5022344;28;20059;-66
2021/09/22 06:06:04;;;;;;;60.10;12.73;;;10.40;99.90;;;;;;5022498;28;20033;-65
2021/09/22 06:08:30;;;;;;;58.85;13.13;;;10.40;99.90;;;;;;5021258;28;20038;-65
2021/09/22 06:10:56;;;;;;;76.70;13.43;;;10.50;99.90;;;;;;5023158;28;20026;-66
2021/09/22 06:13:21;;;;;;;76.35;13.73;;;10.50;99.90;;;;;;5021946;28;20029;-65
2021/09/22 06:15:47;;;;;;;86.85;13.48;;;10.50;99.90;;;;;;5023538;28;20091;-65
2021/09/22 06:18:12;;;;;;;71.90;13.82;;;10.50;99.90;;;;;;5019397;28;20117;-66
2021/09/22 06:20:38;;;;;;;86.85;13.30;;;10.60;99.90;;;;;;5026198;28;20032;-65
2021/09/22 06:23:04;;;;;;;61.20;13.27;;;10.60;99.90;;;;;;5023577;28;20037;-65
2021/09/22 06:25:30;;;;;;;74.53;13.95;;;10.70;99.90;;;;;;5022121;28;20612;-66
2021/09/22 06:27:55;;;;;;;82.95;13.88;;;10.80;99.90;;;;;;5022006;28;22268;-65
2021/09/22 06:30:21;;;;;;;63.80;14.85;;;10.80;99.90;;;;;;5025719;28;20053;-64
2021/09/22 06:32:47;;;;;;;64.32;12.77;;;10.90;99.90;;;;;;5023075;28;20145;-64
2021/09/22 06:35:13;;;;;;;61.85;14.23;;;11.00;99.90;;;;;;5019248;28;20035;-64
2021/09/22 06:37:38;;;;;;;76.63;13.85;;;11.00;99.90;;;;;;5026634;28;20025;-65
2021/09/22 06:40:06;;;;;;;59.17;13.25;;;11.00;99.90;;;;;;5021810;28;20030;-65
2021/09/22 06:42:32;;;;;;;62.53;14.15;;;11.00;99.80;;;;;;5021816;28;20045;-65
2021/09/22 06:44:57;;;;;;;57.22;14.13;;;11.10;99.80;;;;;;5021696;28;20033;-65
2021/09/22 06:47:23;;;;;;;58.45;13.63;;;11.10;99.80;;;;;;5023261;28;20756;-65
2021/09/22 06:49:49;;;;;;;47.78;13.55;;;11.20;99.80;;;;;;5033587;28;20043;-65
2021/09/22 06:52:15;;;;;;;59.67;13.73;;;11.30;99.80;;;;;;5030441;28;20038;-65
2021/09/22 06:54:40;;;;;;;49.22;13.90;;;11.40;99.70;;;;;;5023891;28;20054;-64
2021/09/22 06:57:06;;;;;;;32.42;13.88;;;11.50;99.80;;;;;;5024666;28;20606;-65
2021/09/22 06:59:31;;;;;;;35.22;12.43;;;11.60;99.80;;;;;;5026664;28;20096;-64
2021/09/22 07:01:57;;;;;;;34.28;12.70;;;11.70;99.70;;;;;;5024554;28;20040;-63
2021/09/22 07:04:23;;;;;;;34.05;12.63;;;11.70;99.60;;;;;;5029525;28;20057;-65
2021/09/22 07:06:48;;;;;;;30.42;12.40;;;11.70;99.60;;;;;;5033068;28;20493;-65
2021/09/22 07:09:14;;;;;;;35.85;13.90;;;11.80;99.60;;;;;;5025634;28;20801;-65
2021/09/22 07:11:40;;;;;;;33.17;12.90;;;11.80;99.50;;;;;;5032723;28;20021;-64
2021/09/22 07:14:05;;;;;;;24.10;13.18;;;11.90;99.60;;;;;;5027045;28;20033;-64
2021/09/22 07:16:31;;;;;;;41.33;12.85;;;12.00;99.60;;;;;;5023815;28;20022;-64
2021/09/22 07:18:57;;;;;;;54.33;12.45;;;12.00;99.50;;;;;;5024415;28;20030;-62
2021/09/22 07:21:23;;;;;;;31.63;12.32;;;12.10;99.50;;;;;;5020993;28;20048;-64
2021/09/22 07:23:50;;;;;;;59.83;11.15;;;12.10;99.40;;;;;;5025877;28;20030;-65
2021/09/22 07:26:16;;;;;;;40.40;12.02;;;12.10;99.30;;;;;;5024758;28;20021;-64
2021/09/22 07:28:42;;;;;;;29.13;12.15;;;12.10;99.30;;;;;;5034547;28;20517;-64
2021/09/22 07:31:08;;;;;;;24.92;12.52;;;12.20;99.20;;;;;;5022229;28;20171;-63
2021/09/22 07:33:34;;;;;;;26.58;11.88;;;12.30;99.30;;;;;;5028641;28;20033;-62
2021/09/22 07:36:00;;;;;;;27.55;10.75;;;12.50;99.30;;;;;;5026836;28;20036;-64
2021/09/22 07:38:29;;;;;;;23.52;11.77;;;12.50;99.10;;;;;;5024150;28;20018;-64
2021/09/22 07:40:55;;;;;;;21.67;11.18;;;12.70;99.30;;;;;;5027884;28;20049;-64
2021/09/22 07:43:21;;;;;;;22.70;11.82;;;12.60;99.00;;;;;;5023580;28;20040;-64
2021/09/22 07:45:47;;;;;;;19.73;10.38;;;12.70;98.90;;;;;;5025287;28;20033;-67
2021/09/22 07:48:13;;;;;;;18.75;10.60;;;12.70;98.70;;;;;;5020549;28;20029;-64
2021/09/22 07:50:38;;;;;;;20.55;10.45;;;12.80;98.80;;;;;;5027759;28;20034;-63
2021/09/22 07:53:04;;;;;;;24.48;11.23;;;12.90;98.70;;;;;;5023030;28;20057;-64
2021/09/22 07:55:30;;;;;;;16.73;10.13;;;12.90;98.70;;;;;;5021186;28;20687;-64
2021/09/22 07:57:56;;;;;;;24.20;10.45;;;12.80;98.60;;;;;;5022600;28;20032;-63
2021/09/22 08:00:23;;;;;;;20.08;10.73;;;12.80;98.60;;;;;;5024638;28;20029;-60
2021/09/22 08:02:50;;;;;;;22.42;11.70;;;12.80;98.60;;;;;;5020847;28;20056;-62
2021/09/22 08:05:16;;;;;;;20.75;11.20;;;12.90;98.70;;;;;;5026034;28;20129;-60
2021/09/22 08:07:43;;;;;;;20.60;11.60;;;12.90;98.70;;;;;;5025310;28;20628;-64
2021/09/22 08:10:09;;;;;;;21.23;10.75;;;12.90;98.60;;;;;;5028191;28;20029;-63
2021/09/22 08:12:35;;;;;;;21.63;11.77;;;13.00;98.60;;;;;;5031162;28;20037;-72
2021/09/22 08:15:01;;;;;;;30.23;11.90;;;13.10;98.60;;;;;;5028745;28;20106;-62
2021/09/22 08:17:27;;;;;;;21.35;11.20;;;13.00;98.40;;;;;;5024162;28;20049;-64
2021/09/22 08:19:52;;;;;;;26.45;12.02;;;13.10;98.50;;;;;;5023856;28;20029;-61
2021/09/22 08:22:18;;;;;;;23.55;11.95;;;13.20;98.40;;;;;;5023745;28;20025;-61
2021/09/22 08:24:47;;;;;;;20.60;11.82;;;13.30;98.40;;;;;;5025477;28;20033;-63
2021/09/22 08:27:13;;;;;;;21.48;11.85;;;13.40;98.20;;;;;;5022866;28;20487;-61
2021/09/22 08:29:40;;;;;;;20.92;11.48;;;13.50;98.10;;;;;;5028677;28;20112;-62
2021/09/22 08:32:06;;;;;;;18.38;11.23;;;13.60;97.80;;;;;;5023658;28;20646;-64
2021/09/22 08:34:32;;;;;;;20.65;11.77;;;13.60;97.60;;;;;;5024049;28;20044;-63
2021/09/22 08:36:58;;;;;;;21.10;12.15;;;13.80;97.60;;;;;;5026220;28;20484;-64
2021/09/22 08:39:24;;;;;;;20.48;11.20;;;13.80;97.10;;;;;;5020468;28;20429;-64
2021/09/22 08:41:50;;;;;;;20.92;11.63;;;14.00;97.00;;;;;;5032225;28;20032;-63
2021/09/22 08:44:17;;;;;;;19.63;11.68;;;14.00;96.80;;;;;;5021728;28;20412;-63
2021/09/22 08:46:44;;;;;;;22.10;12.00;;;14.00;97.00;;;;;;5025092;28;20116;-62
2021/09/22 08:49:11;;;;;;;22.02;12.13;;;14.00;97.00;;;;;;5020337;28;20111;-63
2021/09/22 08:51:38;;;;;;;20.83;11.75;;;14.10;96.90;;;;;;5020739;28;20048;-63
2021/09/22 08:54:04;;;;;;;19.83;11.30;;;14.30;96.70;;;;;;5024871;28;22738;-62
2021/09/22 08:56:30;;;;;;;23.45;11.35;;;14.40;96.30;;;;;;5017122;28;20610;-63
2021/09/22 08:58:56;;;;;;;18.92;11.57;;;14.50;95.90;;;;;;5016714;28;20030;-63
2021/09/22 09:01:25;;;;;;;23.98;10.50;;;14.60;95.40;;;;;;5021996;28;20520;-63
2021/09/22 09:03:52;;;;;;;19.42;11.27;;;14.80;95.20;;;;;;5022950;28;20090;-62
2021/09/22 09:06:37;;;;;;;21.05;11.30;;;14.90;95.00;;;;;;5029881;28;20025;-64
2021/09/22 09:09:04;;;;;;;19.25;10.90;;;15.30;94.80;;;;;;5028376;28;20045;-64
2021/09/22 09:11:32;;;;;;;20.80;11.52;;;15.20;93.70;;;;;;5024460;28;20091;-63
2021/09/22 09:14:00;;;;;;;19.33;10.45;;;15.30;93.10;;;;;;5021397;28;20022;-62
2021/09/22 09:16:38;;;;;;;21.63;12.23;;;15.40;93.40;;;;;;5019748;28;20022;-64
2021/09/22 09:19:23;;;;;;;18.90;10.95;;;15.30;93.10;;;;;;5019662;28;20612;-63
2021/09/22 09:22:09;;;;;;;16.15;10.18;;;15.50;93.40;;;;;;5017195;28;20584;-63
2021/09/22 09:24:48;;;;;;;17.13;10.98;;;15.90;91.30;;;;;;5022551;28;20037;-63
2021/09/22 09:27:40;;;;;;;15.60;9.57;;;15.90;92.00;;;;;;5023437;28;20041;-64
2021/09/22 09:30:17;;;;;;;17.42;10.48;;;15.80;90.80;;;;;;5019608;28;20037;-63
2021/09/22 09:32:43;;;;;;;18.33;9.68;;;16.10;91.50;;;;;;5019728;28;20032;-63
2021/09/22 09:35:13;;;;;;;17.83;8.63;;;16.20;91.10;;;;;;5018415;28;20111;-64
2021/09/22 09:37:54;;;;;;;14.47;8.27;;;16.20;90.30;;;;;;5021625;28;20033;-64
2021/09/22 09:40:29;;;;;;;16.13;7.82;;;16.40;89.80;;;;;;5021994;28;20021;-62
2021/09/22 09:43:07;;;;;;;14.38;8.15;;;16.40;88.70;;;;;;5028070;28;20041;-63
2021/09/22 09:45:41;;;;;;;12.15;5.80;;;16.80;88.70;;;;;;5021835;28;20075;-62
2021/09/22 09:48:09;;;;;;;10.82;6.10;;;16.40;87.20;;;;;;5023423;28;20055;-62
2021/09/22 09:50:52;;;;;;;12.68;5.13;;;16.50;86.70;;;;;;5019499;28;20025;-64
2021/09/22 09:53:34;;;;;;;12.70;5.80;;;16.50;85.80;;;;;;5006944;28;20438;-63
2021/09/22 09:56:04;;;;;;;14.40;5.75;;;16.50;87.20;;;;;;5016075;28;20447;-63
2021/09/22 09:58:41;;;;;;;8.88;4.90;;;16.50;87.10;;;;;;5019928;28;20049;-62
2021/09/22 10:01:06;;;;;;;13.55;4.80;;;16.40;85.70;;;;;;5016790;28;20040;-64
2021/09/22 10:03:32;;;;;;;9.38;4.57;;;16.20;86.50;;;;;;5018436;28;20030;-62
2021/09/22 10:05:58;;;;;;;11.25;4.05;;;16.20;85.30;;;;;;5016728;28;20037;-64
2021/09/22 10:08:26;;;;;;;9.45;3.92;;;16.30;84.80;;;;;;5020586;28;20047;-61
2021/09/22 10:10:55;;;;;;;9.05;3.70;;;16.80;84.70;;;;;;5019105;28;20032;-63
2021/09/22 10:13:23;;;;;;;11.73;4.35;;;17.20;80.90;;;;;;5022082;28;20029;-64
2021/09/22 10:15:50;;;;;;;11.95;3.72;;;17.30;82.30;;;;;;5030905;28;20049;-63
2021/09/22 10:18:20;;;;;;;10.55;3.75;;;17.50;80.80;;;;;;5024735;28;20025;-64
2021/09/22 10:20:48;;;;;;;11.70;4.25;;;17.60;79.30;;;;;;5022895;28;20026;-62
2021/09/22 10:23:15;;;;;;;9.90;3.78;;;17.90;78.90;;;;;;5021239;28;20075;-63
2021/09/22 10:25:42;;;;;;;11.88;3.13;;;17.50;79.80;;;;;;5020512;28;20041;-64
2021/09/22 10:28:08;;;;;;;8.27;2.47;;;17.30;79.10;;;;;;5018248;28;20484;-62
2021/09/22 10:30:39;;;;;;;8.20;2.78;;;17.30;77.20;;;;;;5027250;28;20034;-63
2021/09/22 10:33:18;;;;;;;9.90;2.35;;;17.80;76.40;;;;;;5026297;28;20403;-62
2021/09/22 10:35:43;;;;;;;8.80;2.42;;;17.50;76.50;;;;;;5023536;28;20121;-62
2021/09/22 10:38:21;;;;;;;6.32;2.45;;;17.10;77.50;;;;;;5024654;28;20104;-62
2021/09/22 10:40:48;;;;;;;6.95;2.70;;;17.00;77.60;;;;;;5022366;28;20036;-63
2021/09/22 10:43:14;;;;;;;8.85;2.15;;;17.10;78.40;;;;;;5023335;28;20037;-64
2021/09/22 10:46:06;;;;;;;7.75;2.30;;;17.10;76.70;;;;;;5024651;28;20029;-62
2021/09/22 10:48:36;;;;;;;7.90;2.75;;;17.10;77.00;;;;;;5021498;28;20029;-63
2021/09/22 10:51:04;;;;;;;8.57;2.88;;;17.00;77.50;;;;;;5022106;28;20216;-63
2021/09/22 10:53:30;;;;;;;9.77;2.53;;;16.90;78.10;;;;;;5029940;28;20068;-62
2021/09/22 10:56:07;;;;;;;9.63;2.55;;;16.90;79.10;;;;;;5022457;28;20423;-64
2021/09/22 10:58:39;;;;;;;9.88;2.75;;;16.90;79.00;;;;;;5020456;28;20028;-63
2021/09/22 11:01:05;;;;;;;6.03;2.72;;;16.90;79.00;;;;;;5037948;28;20055;-62
2021/09/22 11:03:45;;;;;;;5.93;2.55;;;16.80;78.50;;;;;;5026428;28;20029;-62
2021/09/22 11:06:42;;;;;;;5.78;2.70;;;16.60;79.10;;;;;;5023827;28;20091;-65
2021/09/22 11:09:10;;;;;;;4.93;1.98;;;16.70;79.20;;;;;;5026629;28;20038;-65
2021/09/22 11:12:00;;;;;;;6.53;2.25;;;16.60;79.90;;;;;;5027753;28;20382;-67
2021/09/22 11:14:49;;;;;;;4.97;2.30;;;16.70;79.50;;;;;;5023880;28;20029;-63
2021/09/22 11:17:26;;;;;;;4.70;1.83;;;17.00;80.00;;;;;;5017091;28;20029;-67
2021/09/22 11:20:00;;;;;;;8.00;2.13;;;17.50;77.60;;;;;;5029212;28;20041;-64
2021/09/22 11:22:29;;;;;;;7.57;1.95;;;18.20;75.10;;;;;;5024165;28;20052;-64
2021/09/22 11:25:06;;;;;;;5.05;1.83;;;18.70;73.40;;;;;;5026859;28;20393;-67
2021/09/22 11:27:32;;;;;;;5.30;1.77;;;19.40;72.00;;;;;;5022776;28;20116;-66
2021/09/22 11:30:02;;;;;;;6.35;1.60;;;19.50;70.50;;;;;;5025786;28;20025;-67
2021/09/22 11:32:39;;;;;;;6.50;1.77;;;19.70;69.30;;;;;;5028231;28;20384;-67
2021/09/22 11:35:05;;;;;;;4.05;1.50;;;19.20;69.70;;;;;;5043938;28;20404;-67
2021/09/22 11:37:40;;;;;;;5.95;1.23;;;18.90;70.80;;;;;;5026891;28;20025;-64
2021/09/22 11:40:13;;;;;;;5.35;1.63;;;19.40;70.40;;;;;;5026840;28;20029;-64
2021/09/22 11:43:00;;;;;;;5.68;1.70;;;19.00;70.70;;;;;;5034923;28;20500;-67
2021/09/22 11:45:33;;;;;;;4.55;1.60;;;19.30;69.70;;;;;;5042923;28;20447;-66
2021/09/22 11:47:58;;;;;;;4.10;1.40;;;19.50;68.70;;;;;;5024971;28;20049;-67
2021/09/22 11:50:27;;;;;;;3.45;1.33;;;19.80;68.90;;;;;;5027644;28;20033;-65
2021/09/22 11:52:52;;;;;;;3.55;1.17;;;20.20;66.80;;;;;;5028440;28;20822;-67
2021/09/22 11:55:22;;;;;;;5.68;1.17;;;20.40;66.20;;;;;;5023561;28;20186;-65
2021/09/22 11:57:48;;;;;;;3.80;1.38;;;20.70;65.70;;;;;;5024049;28;20049;-67
2021/09/22 12:00:16;;;;;;;4.95;1.52;;;20.70;62.90;;;;;;5024975;28;20022;-68
2021/09/22 12:02:42;;;;;;;5.03;1.63;;;20.80;64.20;;;;;;5026040;28;20033;-66
2021/09/22 12:05:13;;;;;;;3.08;1.15;;;20.70;64.00;;;;;;5023773;28;20025;-68
2021/09/22 12:07:41;;;;;;;7.43;1.70;;;20.50;65.60;;;;;;5020236;28;20109;-65
2021/09/22 12:10:07;;;;;;;8.02;1.90;;;20.70;65.20;;;;;;5023731;28;20456;-67
2021/09/22 12:12:32;;;;;;;4.60;1.50;;;21.10;65.60;;;;;;5025479;28;20021;-66
2021/09/22 12:14:59;;;;;;;5.07;1.20;;;21.00;64.40;;;;;;5020639;28;20041;-67
2021/09/22 12:17:30;;;;;;;6.25;1.50;;;21.10;63.30;;;;;;5026124;28;20029;-67
2021/09/22 12:19:59;;;;;;;6.90;1.48;;;20.90;63.00;;;;;;5026725;28;20170;-68
2021/09/22 12:22:28;;;;;;;4.35;1.60;;;20.90;62.70;;;;;;5029404;28;20063;-67
2021/09/22 12:24:54;;;;;;;6.10;1.63;;;20.40;64.20;;;;;;5024934;28;20057;-66
2021/09/22 12:27:22;;;;;;;5.38;1.40;;;19.90;67.00;;;;;;5019405;28;20036;-64
2021/09/22 12:29:52;;;;;;;5.95;1.58;;;19.30;68.10;;;;;;5023173;28;20025;-67
2021/09/22 12:32:17;;;;;;;5.05;1.75;;;19.40;67.70;;;;;;5025686;28;20025;-68
2021/09/22 12:34:43;;;;;;;4.43;1.85;;;19.60;68.20;;;;;;5024003;28;20396;-67